TimeCST,TemperatureF,Dew PointF,Humidity,Sea Level PressureIn,VisibilityMPH,Wind Direction,Wind SpeedMPH,Gust SpeedMPH,PrecipitationIn,Events,Conditions,WindDirDegrees,DateUTC
12:15 AM,42.8,32.0,66,30.09,10.0,SSE,13.8,-,N/A,,Clear,150,2012-11-18 06:15:00
12:35 AM,41.0,32.0,70,30.09,10.0,SSE,13.8,-,N/A,,Clear,150,2012-11-18 06:35:00
12:55 AM,41.0,32.0,70,30.09,10.0,SSE,11.5,-,N/A,,Clear,150,2012-11-18 06:55:00
1:15 AM,41.0,32.0,70,30.09,10.0,SSE,10.4,-,N/A,,Clear,150,2012-11-18 07:15:00
1:35 AM,41.0,32.0,70,30.08,10.0,SSE,11.5,-,N/A,,Clear,150,2012-11-18 07:35:00
1:55 AM,39.2,32.0,75,30.08,10.0,SSE,10.4,-,N/A,,Clear,150,2012-11-18 07:55:00
2:15 AM,39.2,32.0,75,30.08,10.0,SSE,9.2,-,N/A,,Clear,150,2012-11-18 08:15:00
2:35 AM,37.4,32.0,81,30.08,10.0,SSE,9.2,-,N/A,,Clear,150,2012-11-18 08:35:00
2:55 AM,39.2,32.0,75,30.07,10.0,SSE,9.2,-,N/A,,Clear,150,2012-11-18 08:55:00
3:15 AM,37.4,32.0,81,30.07,10.0,SSE,9.2,-,N/A,,Clear,150,2012-11-18 09:15:00
3:35 AM,37.4,32.0,81,30.06,10.0,SSE,6.9,-,N/A,,Clear,150,2012-11-18 09:35:00
3:55 AM,37.4,32.0,81,30.05,10.0,SE,5.8,-,N/A,,Clear,140,2012-11-18 09:55:00
4:15 AM,37.4,32.0,81,30.05,10.0,SE,5.8,-,N/A,,Clear,140,2012-11-18 10:15:00
4:35 AM,37.4,32.0,81,30.05,10.0,SE,9.2,-,N/A,,Clear,140,2012-11-18 10:35:00
4:55 AM,37.4,32.0,81,30.05,10.0,SE,9.2,-,N/A,,Clear,140,2012-11-18 10:55:00
5:15 AM,37.4,32.0,81,30.04,10.0,SE,11.5,-,N/A,,Clear,140,2012-11-18 11:15:00
5:35 AM,37.4,32.0,81,30.04,10.0,SE,10.4,-,N/A,,Clear,140,2012-11-18 11:35:00
5:55 AM,37.4,32.0,81,30.04,10.0,SE,9.2,-,N/A,,Clear,140,2012-11-18 11:55:00
6:15 AM,37.4,32.0,81,30.04,10.0,SE,9.2,-,N/A,,Clear,140,2012-11-18 12:15:00
6:35 AM,37.4,32.0,81,30.04,10.0,SE,11.5,-,N/A,,Clear,140,2012-11-18 12:35:00
6:55 AM,37.4,32.0,81,30.04,10.0,SE,9.2,16.1,N/A,,Clear,140,2012-11-18 12:55:00
7:15 AM,37.4,32.0,81,30.04,10.0,SE,10.4,-,N/A,,Clear,140,2012-11-18 13:15:00
7:35 AM,35.6,32.0,87,30.04,10.0,SE,9.2,-,N/A,,Clear,140,2012-11-18 13:35:00
7:55 AM,35.6,32.0,87,30.04,10.0,SE,10.4,-,N/A,,Clear,140,2012-11-18 13:55:00
8:15 AM,37.4,32.0,81,30.04,10.0,SSE,11.5,-,N/A,,Clear,150,2012-11-18 14:15:00
8:35 AM,37.4,32.0,81,30.04,10.0,SSE,10.4,-,N/A,,Clear,150,2012-11-18 14:35:00
8:55 AM,41.0,32.0,70,30.03,10.0,SSE,10.4,17.3,N/A,,Clear,150,2012-11-18 14:55:00
9:15 AM,41.0,32.0,70,30.03,10.0,SSE,13.8,-,N/A,,Clear,150,2012-11-18 15:15:00
9:35 AM,42.8,32.0,66,30.03,10.0,SSE,12.7,-,N/A,,Clear,160,2012-11-18 15:35:00
9:55 AM,44.6,32.0,61,30.04,10.0,SSE,13.8,-,N/A,,Clear,160,2012-11-18 15:55:00
10:15 AM,44.6,32.0,61,30.04,10.0,SSE,13.8,-,N/A,,Clear,160,2012-11-18 16:15:00
10:35 AM,44.6,32.0,61,30.04,10.0,SSE,13.8,-,N/A,,Clear,160,2012-11-18 16:35:00
10:55 AM,46.4,32.0,57,30.04,10.0,SSE,12.7,-,N/A,,Clear,160,2012-11-18 16:55:00
11:15 AM,46.4,32.0,57,30.04,10.0,SSE,15.0,-,N/A,,Clear,150,2012-11-18 17:15:00
11:35 AM,46.4,32.0,57,30.03,10.0,SSE,12.7,16.1,N/A,,Clear,150,2012-11-18 17:35:00
11:55 AM,48.2,32.0,54,30.03,10.0,SSE,11.5,-,N/A,,Clear,160,2012-11-18 17:55:00
12:15 PM,50.0,33.8,54,30.02,10.0,SSE,10.4,16.1,N/A,,Clear,160,2012-11-18 18:15:00
12:35 PM,50.0,33.8,54,30.02,10.0,SSE,12.7,17.3,N/A,,Clear,160,2012-11-18 18:35:00
12:55 PM,51.8,33.8,50,30.01,10.0,SSE,11.5,-,N/A,,Clear,160,2012-11-18 18:55:00
1:15 PM,51.8,33.8,50,30.00,10.0,SSE,13.8,19.6,N/A,,Clear,150,2012-11-18 19:15:00
1:35 PM,51.8,33.8,50,30.01,10.0,SSE,15.0,-,N/A,,Clear,150,2012-11-18 19:35:00
1:55 PM,53.6,33.8,47,30.00,10.0,SSE,13.8,-,N/A,,Clear,160,2012-11-18 19:55:00
2:15 PM,53.6,33.8,47,30.00,10.0,SE,12.7,18.4,N/A,,Clear,140,2012-11-18 20:15:00
2:35 PM,53.6,33.8,47,30.00,10.0,SSE,13.8,-,N/A,,Clear,150,2012-11-18 20:35:00
2:55 PM,53.6,33.8,47,29.99,10.0,SE,12.7,-,N/A,,Clear,140,2012-11-18 20:55:00
3:15 PM,53.6,35.6,51,29.99,10.0,SSE,11.5,-,N/A,,Clear,150,2012-11-18 21:15:00
3:35 PM,53.6,35.6,51,30.00,10.0,SE,11.5,-,N/A,,Clear,140,2012-11-18 21:35:00
3:55 PM,51.8,35.6,54,30.00,10.0,SE,10.4,-,N/A,,Clear,130,2012-11-18 21:55:00
4:15 PM,51.8,35.6,54,30.00,10.0,SE,10.4,-,N/A,,Clear,140,2012-11-18 22:15:00
4:35 PM,50.0,35.6,58,30.00,10.0,SE,9.2,-,N/A,,Clear,140,2012-11-18 22:35:00
4:55 PM,48.2,33.8,58,30.01,10.0,SE,8.1,-,N/A,,Clear,130,2012-11-18 22:55:00
5:15 PM,48.2,35.6,62,30.01,10.0,SE,10.4,-,N/A,,Clear,130,2012-11-18 23:15:00
5:35 PM,48.2,33.8,58,30.01,10.0,SE,10.4,-,N/A,,Clear,130,2012-11-18 23:35:00
5:55 PM,46.4,33.8,62,30.01,10.0,SE,8.1,-,N/A,,Clear,130,2012-11-18 23:55:00
6:15 PM,48.2,35.6,62,30.01,10.0,SE,10.4,-,N/A,,Clear,140,2012-11-19 00:15:00
6:35 PM,46.4,35.6,66,30.01,10.0,SE,10.4,-,N/A,,Clear,130,2012-11-19 00:35:00
6:55 PM,46.4,35.6,66,30.01,10.0,SE,8.1,-,N/A,,Mostly Cloudy,130,2012-11-19 00:55:00
7:15 PM,46.4,35.6,66,30.01,10.0,SE,8.1,-,N/A,,Overcast,140,2012-11-19 01:15:00
7:35 PM,46.4,35.6,66,30.02,10.0,SE,6.9,-,N/A,,Scattered Clouds,140,2012-11-19 01:35:00
8:15 PM,44.6,33.8,66,30.02,10.0,SE,8.1,-,N/A,,Scattered Clouds,140,2012-11-19 02:15:00
8:35 PM,44.6,33.8,66,30.01,10.0,SE,8.1,-,N/A,,Clear,140,2012-11-19 02:35:00
8:55 PM,44.6,33.8,66,30.01,10.0,SE,9.2,-,N/A,,Clear,140,2012-11-19 02:55:00
9:15 PM,46.4,33.8,62,30.01,10.0,SE,10.4,-,N/A,,Scattered Clouds,140,2012-11-19 03:15:00
9:35 PM,46.4,33.8,62,30.01,10.0,SSE,10.4,-,N/A,,Scattered Clouds,150,2012-11-19 03:35:00
9:55 PM,46.4,33.8,62,30.01,10.0,SSE,9.2,-,N/A,,Scattered Clouds,150,2012-11-19 03:55:00
10:15 PM,46.4,33.8,62,30.01,10.0,SSE,11.5,-,N/A,,Scattered Clouds,150,2012-11-19 04:15:00
10:35 PM,44.6,33.8,66,30.01,10.0,SSE,9.2,-,N/A,,Clear,150,2012-11-19 04:35:00
11:15 PM,42.8,33.8,70,30.01,10.0,SE,9.2,-,N/A,,Clear,140,2012-11-19 05:15:00
11:35 PM,42.8,33.8,70,30.00,10.0,SE,9.2,-,N/A,,Clear,140,2012-11-19 05:35:00
11:55 PM,41.0,33.8,76,30.01,10.0,SE,9.2,-,N/A,,Clear,140,2012-11-19 05:55:00